Time;durP1;ratioP1;P1;durP2;ratioP2;P2;SDS_P1;SDS_P2;PMS_P1;PMS_P2;Temp;Humidity;BMP_temperature;BMP_pressure;BME280_temperature;BME280_humidity;BME280_pressure;Samples;Min_cycle;Max_cycle;Signal;HPM_P1;HPM_P2
2023/09/09 00:01:32;;;;;;;5.90;2.85;;;;;;;;;;5009418;28;20053;-86
2023/09/09 00:03:58;;;;;;;5.05;2.35;;;13.60;99.90;;;;;;5009239;28;20052;-87
2023/09/09 00:06:24;;;;;;;5.53;3.22;;;;;;;;;;5005537;28;20034;-88
2023/09/09 00:08:50;;;;;;;7.05;3.28;;;;;;;;;;5014865;28;20159;-85
2023/09/09 00:11:16;;;;;;;5.82;2.67;;;;;;;;;;5008122;28;20513;-85
2023/09/09 00:13:42;;;;;;;7.30;3.17;;;;;;;;;;4999917;28;20038;-85
2023/09/09 00:16:08;;;;;;;7.32;3.28;;;;;;;;;;5008807;28;20469;-86
2023/09/09 00:18:34;;;;;;;5.53;3.00;;;;;;;;;;5008968;28;20041;-88
2023/09/09 00:21:00;;;;;;;7.03;4.07;;;;;;;;;;5007335;28;20030;-88
2023/09/09 00:23:26;;;;;;;5.10;2.85;;;;;;;;;;5006125;28;20057;-88
2023/09/09 00:25:53;;;;;;;6.80;3.17;;;;;;;;;;5004574;28;20037;-86
2023/09/09 00:28:20;;;;;;;5.55;3.20;;;;;;;;;;5009364;28;20029;-87
2023/09/09 00:30:46;;;;;;;7.75;3.60;;;;;;;;;;5012001;28;20029;-88
2023/09/09 00:33:13;;;;;;;5.30;2.80;;;;;;;;;;5005424;28;20061;-88
2023/09/09 00:35:39;;;;;;;5.53;3.17;;;;;;;;;;5009653;28;20429;-88
2023/09/09 00:38:07;;;;;;;5.95;3.00;;;13.50;99.90;;;;;;5014824;28;20085;-88
2023/09/09 00:40:33;;;;;;;6.53;2.65;;;;;;;;;;5011030;28;20086;-88
2023/09/09 00:42:59;;;;;;;5.97;3.17;;;;;;;;;;5010834;28;20514;-87
2023/09/09 00:45:27;;;;;;;5.97;3.22;;;13.60;99.90;;;;;;5013585;28;20081;-88
2023/09/09 00:47:53;;;;;;;7.35;3.40;;;;;;;;;;5013175;28;20022;-87
2023/09/09 00:50:20;;;;;;;7.10;3.28;;;13.50;99.90;;;;;;5004707;28;20501;-88
2023/09/09 00:52:47;;;;;;;7.63;3.58;;;;;;;;;;5002254;28;20031;-86
2023/09/09 00:55:13;;;;;;;8.00;3.65;;;;;;;;;;5004288;28;20030;-86
2023/09/09 00:57:39;;;;;;;5.60;2.70;;;;;;;;;;5010975;28;20026;-87
2023/09/09 01:00:09;;;;;;;5.57;3.10;;;;;;;;;;5020756;28;20022;-88
2023/09/09 01:02:39;;;;;;;6.25;3.53;;;13.40;99.90;;;;;;5003079;28;20049;-87
2023/09/09 01:05:07;;;;;;;6.68;3.33;;;13.30;99.90;;;;;;5007761;28;20023;-88
2023/09/09 01:07:46;;;;;;;10.82;3.38;;;13.40;99.90;;;;;;5005203;28;20026;-88
2023/09/09 01:10:12;;;;;;;6.93;3.13;;;12.50;99.90;;;;;;5003866;28;20041;-88
2023/09/09 01:12:38;;;;;;;9.10;3.20;;;;;;;;;;5000270;28;20025;-88
2023/09/09 01:15:06;;;;;;;7.45;3.58;;;12.70;99.90;;;;;;5001195;28;20025;-87
2023/09/09 01:17:32;;;;;;;7.95;3.10;;;;;;;;;;5005713;28;20393;-88
2023/09/09 01:19:59;;;;;;;6.13;3.35;;;13.40;99.90;;;;;;5010377;28;20033;-86
2023/09/09 01:22:28;;;;;;;7.60;3.65;;;;;;;;;;5003964;28;20037;-87
2023/09/09 01:24:55;;;;;;;10.30;2.85;;;13.40;99.90;;;;;;4996392;28;20041;-87
2023/09/09 01:27:21;;;;;;;8.95;3.15;;;;;;;;;;5008548;28;20061;-89
2023/09/09 01:29:47;;;;;;;6.10;3.33;;;;;;;;;;5009847;28;20026;-84
2023/09/09 01:32:14;;;;;;;8.23;3.60;;;;;;;;;;5003325;28;20030;-84
2023/09/09 01:34:40;;;;;;;7.20;3.15;;;;;;;;;;5012029;28;20522;-84
2023/09/09 01:37:06;;;;;;;3.97;2.65;;;;;;;;;;5006484;28;20081;-84
2023/09/09 01:39:31;;;;;;;8.15;3.75;;;;;;;;;;5009044;28;20033;-90
2023/09/09 01:41:57;;;;;;;8.43;3.67;;;;;;;;;;5006883;28;20056;-87
2023/09/09 01:44:23;;;;;;;5.65;2.80;;;;;;;;;;5010852;28;20026;-89
2023/09/09 01:46:49;;;;;;;7.13;3.67;;;;;;;;;;5003190;28;20038;-87
2023/09/09 01:49:16;;;;;;;5.35;3.22;;;;;;;;;;5006579;28;20030;-87
2023/09/09 01:51:42;;;;;;;6.47;3.35;;;;;;;;;;5007465;28;20037;-87
2023/09/09 01:54:08;;;;;;;10.23;3.35;;;;;;;;;;5010940;28;20213;-86
2023/09/09 01:56:34;;;;;;;8.23;3.72;;;;;;;;;;5009742;28;20118;-88
2023/09/09 01:58:59;;;;;;;6.63;3.83;;;;;;;;;;5007076;28;20716;-85
2023/09/09 02:01:25;;;;;;;7.78;3.28;;;;;;;;;;5008862;28;20073;-89
2023/09/09 02:03:51;;;;;;;5.03;3.30;;;;;;;;;;5002308;28;20046;-89
2023/09/09 02:06:17;;;;;;;9.95;3.15;;;;;;;;;;4985802;28;20125;-89
2023/09/09 02:08:43;;;;;;;5.70;3.80;;;;;;;;;;5003946;28;20473;-88
2023/09/09 02:11:09;;;;;;;7.25;3.65;;;;;;;;;;5007952;28;20053;-86
2023/09/09 02:13:35;;;;;;;7.13;3.55;;;;;;;;;;5004226;28;20054;-89
2023/09/09 02:16:08;;;;;;;7.38;3.22;;;;;;;;;;5020066;28;20122;-89
2023/09/09 02:18:37;;;;;;;6.47;3.22;;;;;;;;;;5003957;28;20033;-86
2023/09/09 02:21:05;;;;;;;10.35;3.35;;;;;;;;;;5010053;28;20030;-89
2023/09/09 02:23:31;;;;;;;6.82;3.47;;;;;;;;;;5002061;28;20084;-88
2023/09/09 02:25:57;;;;;;;7.65;3.15;;;;;;;;;;5005728;28;20048;-86
2023/09/09 02:28:23;;;;;;;7.53;3.30;;;;;;;;;;5011616;28;20029;-84
2023/09/09 02:30:49;;;;;;;6.28;3.33;;;;;;;;;;5001396;28;20026;-88
2023/09/09 02:33:15;;;;;;;5.75;3.15;;;;;;;;;;5004236;28;20389;-88
2023/09/09 02:35:44;;;;;;;8.35;2.85;;;12.80;99.90;;;;;;5002810;28;20026;-87
2023/09/09 02:38:10;;;;;;;7.72;3.95;;;;;;;;;;5005094;28;20042;-88
2023/09/09 02:40:36;;;;;;;6.60;2.97;;;;;;;;;;5016495;28;20045;-86
2023/09/09 02:43:02;;;;;;;6.07;2.60;;;;;;;;;;5017184;28;20037;-88
2023/09/09 02:45:28;;;;;;;4.78;2.72;;;;;;;;;;5011834;28;20033;-85
2023/09/09 02:47:54;;;;;;;9.20;3.85;;;;;;;;;;5010607;28;20136;-82
2023/09/09 02:50:21;;;;;;;5.65;3.45;;;;;;;;;;5010258;28;20030;-87
2023/09/09 02:52:50;;;;;;;6.80;3.47;;;;;;;;;;4997294;28;20076;-85
2023/09/09 02:55:16;;;;;;;8.48;3.90;;;;;;;;;;5004464;28;20030;-85
2023/09/09 02:57:47;;;;;;;6.15;3.35;;;12.30;99.90;;;;;;5008302;28;20034;-87
2023/09/09 03:00:15;;;;;;;6.97;3.63;;;;;;;;;;5015698;28;20022;-86
2023/09/09 03:02:42;;;;;;;7.45;3.90;;;;;;;;;;5008755;28;20569;-87
2023/09/09 03:05:08;;;;;;;6.72;3.20;;;;;;;;;;5011969;28;20129;-87
2023/09/09 03:07:34;;;;;;;6.75;3.55;;;;;;;;;;5009699;28;20041;-85
2023/09/09 03:10:00;;;;;;;6.60;2.80;;;;;;;;;;5011297;28;20037;-88
2023/09/09 03:12:26;;;;;;;5.80;3.22;;;;;;;;;;5004747;28;20075;-85
2023/09/09 03:14:52;;;;;;;7.97;3.42;;;;;;;;;;5005821;28;20026;-83
2023/09/09 03:17:19;;;;;;;7.13;3.08;;;;;;;;;;4999907;28;20817;-87
2023/09/09 03:19:45;;;;;;;8.65;3.42;;;;;;;;;;5006473;28;20434;-87
2023/09/09 03:22:11;;;;;;;7.88;3.58;;;;;;;;;;5002937;28;20033;-87
2023/09/09 03:24:37;;;;;;;6.88;3.67;;;;;;;;;;5005622;28;20030;-86
2023/09/09 03:27:03;;;;;;;8.35;3.42;;;;;;;;;;5008133;28;20068;-83
2023/09/09 03:29:29;;;;;;;7.93;3.03;;;;;;;;;;5005458;28;20049;-89
2023/09/09 03:31:55;;;;;;;8.23;3.95;;;;;;;;;;5004564;28;20034;-86
2023/09/09 03:34:21;;;;;;;6.90;3.58;;;;;;;;;;5004081;28;20029;-88
2023/09/09 03:36:47;;;;;;;10.13;4.10;;;;;;;;;;5011407;28;20034;-88
2023/09/09 03:39:13;;;;;;;7.38;3.40;;;;;;;;;;4992797;28;20034;-88
2023/09/09 03:41:40;;;;;;;6.45;2.85;;;;;;;;;;5008267;28;20059;-88
2023/09/09 03:44:06;;;;;;;8.90;3.75;;;;;;;;;;4995300;28;20029;-89
2023/09/09 03:46:33;;;;;;;6.57;3.67;;;;;;;;;;5012536;28;20025;-87
2023/09/09 03:48:59;;;;;;;6.10;3.22;;;;;;;;;;5013370;28;20779;-88
2023/09/09 03:51:25;;;;;;;9.45;4.18;;;;;;;;;;5014515;28;20076;-88
2023/09/09 03:53:51;;;;;;;6.45;3.38;;;;;;;;;;5008465;28;20036;-88
2023/09/09 03:56:17;;;;;;;6.45;3.55;;;;;;;;;;5016985;28;20034;-89
2023/09/09 03:58:43;;;;;;;6.15;3.53;;;;;;;;;;5011986;28;20029;-87
2023/09/09 04:01:10;;;;;;;9.60;3.65;;;12.00;99.90;;;;;;5017339;28;20030;-88
2023/09/09 04:03:37;;;;;;;6.63;3.40;;;;;;;;;;5012777;28;20037;-88
2023/09/09 04:06:06;;;;;;;5.18;3.05;;;11.80;99.90;;;;;;5017950;28;20437;-88
2023/09/09 04:08:32;;;;;;;7.13;3.67;;;;;;;;;;5013083;28;20053;-88
2023/09/09 04:10:58;;;;;;;5.65;2.85;;;;;;;;;;5017543;28;20532;-88
2023/09/09 04:13:24;;;;;;;8.25;3.10;;;;;;;;;;5008245;28;20029;-87
2023/09/09 04:15:56;;;;;;;6.75;3.35;;;11.70;99.90;;;;;;5007386;28;20094;-87
2023/09/09 04:18:22;;;;;;;7.63;3.83;;;;;;;;;;5012306;28;20112;-88
2023/09/09 04:20:48;;;;;;;6.13;3.10;;;;;;;;;;5017585;28;20025;-89
2023/09/09 04:23:14;;;;;;;6.30;3.53;;;;;;;;;;5007990;28;20038;-85
2023/09/09 04:25:40;;;;;;;12.35;3.47;;;;;;;;;;5012048;28;20073;-86
2023/09/09 04:28:09;;;;;;;7.70;3.65;;;;;;;;;;5010243;28;20034;-88
2023/09/09 04:30:36;;;;;;;7.63;3.20;;;;;;;;;;5010591;28;20021;-88
2023/09/09 04:33:02;;;;;;;7.03;3.40;;;;;;;;;;5000802;28;20056;-87
2023/09/09 04:35:28;;;;;;;6.57;3.67;;;;;;;;;;5003924;28;20064;-87
2023/09/09 04:37:54;;;;;;;4.97;2.90;;;;;;;;;;5007609;28;20061;-86
2023/09/09 04:40:21;;;;;;;6.40;3.53;;;;;;;;;;5004589;28;20026;-86
2023/09/09 04:42:47;;;;;;;6.80;3.15;;;;;;;;;;5003332;28;20049;-86
2023/09/09 04:45:13;;;;;;;6.20;2.97;;;;;;;;;;5006494;28;20096;-84
2023/09/09 04:47:39;;;;;;;6.57;3.25;;;;;;;;;;5005842;28;20038;-89
2023/09/09 04:50:05;;;;;;;7.53;3.83;;;;;;;;;;5001691;28;20022;-86
2023/09/09 04:52:31;;;;;;;7.47;3.95;;;;;;;;;;5001677;28;20026;-84
2023/09/09 04:54:57;;;;;;;5.60;3.45;;;;;;;;;;5010771;28;20122;-88
2023/09/09 04:57:23;;;;;;;6.97;3.30;;;;;;;;;;5009577;28;20487;-89
2023/09/09 04:59:49;;;;;;;7.88;3.95;;;;;;;;;;5006715;28;20098;-87
2023/09/09 05:02:15;;;;;;;13.10;4.18;;;;;;;;;;5007737;28;20577;-87
2023/09/09 05:04:41;;;;;;;8.80;3.80;;;;;;;;;;5014282;28;21834;-86
2023/09/09 05:07:07;;;;;;;7.15;3.00;;;;;;;;;;5009670;28;20033;-83
2023/09/09 05:09:32;;;;;;;9.30;3.78;;;;;;;;;;5006999;28;20030;-85
2023/09/09 05:11:58;;;;;;;7.80;3.83;;;;;;;;;;5015071;28;20029;-83
2023/09/09 05:14:24;;;;;;;7.28;3.95;;;;;;;;;;5006606;28;20584;-87
2023/09/09 05:16:50;;;;;;;8.48;3.97;;;;;;;;;;5010017;28;20057;-83
2023/09/09 05:19:16;;;;;;;8.48;4.65;;;;;;;;;;5018242;28;20029;-87
2023/09/09 05:21:42;;;;;;;6.35;3.40;;;;;;;;;;5010641;28;20042;-87
2023/09/09 05:24:08;;;;;;;7.82;3.70;;;;;;;;;;5012462;28;20026;-88
2023/09/09 05:26:34;;;;;;;7.07;3.55;;;;;;;;;;5005867;28;20042;-87
2023/09/09 05:29:01;;;;;;;7.53;3.20;;;;;;;;;;5009088;28;20118;-89
2023/09/09 05:31:27;;;;;;;9.75;3.97;;;;;;;;;;5011749;28;20026;-88
2023/09/09 05:33:53;;;;;;;7.85;3.80;;;;;;;;;;5009251;28;20030;-89
2023/09/09 05:36:19;;;;;;;8.43;3.97;;;;;;;;;;5013640;28;20026;-89
2023/09/09 05:38:45;;;;;;;10.25;4.25;;;;;;;;;;5014220;28;20529;-89
2023/09/09 05:41:11;;;;;;;9.30;4.70;;;;;;;;;;5015406;28;20045;-89
2023/09/09 05:43:37;;;;;;;9.57;4.20;;;;;;;;;;5005334;28;20045;-88
2023/09/09 05:46:03;;;;;;;8.73;4.75;;;;;;;;;;5012126;28;20029;-89
2023/09/09 05:48:30;;;;;;;12.07;4.25;;;;;;;;;;5014866;28;20481;-88
2023/09/09 05:50:56;;;;;;;6.93;4.55;;;;;;;;;;5009369;28;20025;-87
2023/09/09 05:53:22;;;;;;;8.73;3.53;;;;;;;;;;5004199;28;20112;-86
2023/09/09 05:55:48;;;;;;;7.60;4.28;;;;;;;;;;5018358;28;20025;-87
2023/09/09 05:58:14;;;;;;;9.23;4.60;;;;;;;;;;5013869;28;20132;-87
2023/09/09 06:00:40;;;;;;;6.07;3.78;;;;;;;;;;5008631;28;20045;-87
2023/09/09 06:03:06;;;;;;;8.90;5.47;;;;;;;;;;5012793;28;20025;-89
2023/09/09 06:05:32;;;;;;;12.00;5.20;;;;;;;;;;4993731;28;20473;-88
2023/09/09 06:07:58;;;;;;;8.75;4.38;;;;;;;;;;5018911;28;20022;-88
2023/09/09 06:10:25;;;;;;;7.63;3.88;;;;;;;;;;5011694;28;20049;-85
2023/09/09 06:12:51;;;;;;;10.07;5.28;;;;;;;;;;5009885;28;20024;-88
2023/09/09 06:15:17;;;;;;;8.85;4.75;;;;;;;;;;5007971;28;20038;-85
2023/09/09 06:17:43;;;;;;;10.13;5.00;;;;;;;;;;5012918;28;20030;-90
2023/09/09 06:20:09;;;;;;;7.80;4.50;;;;;;;;;;5017988;28;20046;-89
2023/09/09 06:22:35;;;;;;;12.30;5.57;;;;;;;;;;5011316;28;20083;-89
2023/09/09 06:25:02;;;;;;;8.02;4.63;;;;;;;;;;5008294;28;20065;-89
2023/09/09 06:27:28;;;;;;;10.93;5.57;;;;;;;;;;5012096;28;20033;-89
2023/09/09 06:29:54;;;;;;;7.75;4.30;;;;;;;;;;5021225;28;20018;-89
2023/09/09 06:32:19;;;;;;;10.93;5.20;;;;;;;;;;5015339;28;20486;-89
2023/09/09 06:34:45;;;;;;;12.77;5.53;;;;;;;;;;5005678;28;20026;-88
2023/09/09 06:37:12;;;;;;;10.75;5.68;;;13.70;99.90;;;;;;5008304;28;20117;-91
2023/09/09 06:39:38;;;;;;;12.13;6.10;;;;;;;;;;5015013;28;20053;-90
2023/09/09 06:42:04;;;;;;;12.13;6.10;;;;;;;;;;5024373;28;20370;-87
2023/09/09 06:44:30;;;;;;;9.60;5.40;;;;;;;;;;5020574;28;20034;-90
2023/09/09 06:46:56;;;;;;;13.52;6.20;;;;;;;;;;5008874;28;20044;-87
2023/09/09 06:49:22;;;;;;;11.05;5.68;;;;;;;;;;5011681;28;20028;-86
2023/09/09 06:51:48;;;;;;;12.13;6.43;;;;;;;;;;5010137;28;20022;-86
2023/09/09 06:54:14;;;;;;;10.90;5.75;;;;;;;;;;5006901;28;20175;-90
2023/09/09 06:56:40;;;;;;;10.18;5.00;;;;;;;;;;5010596;28;20044;-91
2023/09/09 06:59:07;;;;;;;10.80;5.97;;;;;;;;;;5004542;28;20121;-90
2023/09/09 07:01:33;;;;;;;11.75;5.63;;;;;;;;;;5009897;28;20049;-90
2023/09/09 07:03:59;;;;;;;12.15;5.80;;;;;;;;;;5006220;28;20076;-89
2023/09/09 07:06:25;;;;;;;9.98;5.65;;;;;;;;;;5006422;28;20038;-89
2023/09/09 07:08:52;;;;;;;13.77;5.88;;;14.90;99.90;;;;;;5011741;28;20057;-90
2023/09/09 07:11:18;;;;;;;9.43;5.22;;;;;;;;;;5009101;28;20068;-88
2023/09/09 07:13:44;;;;;;;9.23;5.53;;;;;;;;;;4998288;28;20084;-88
2023/09/09 07:16:10;;;;;;;12.55;5.68;;;;;;;;;;5004047;28;20034;-85
2023/09/09 07:18:38;;;;;;;11.88;5.53;;;;;;;;;;5011217;28;20272;-86
2023/09/09 07:21:04;;;;;;;11.35;5.55;;;;;;;;;;5011981;28;20033;-87
2023/09/09 07:23:30;;;;;;;12.88;5.75;;;;;;;;;;5010405;28;20045;-90
2023/09/09 07:25:56;;;;;;;10.40;6.03;;;;;;;;;;5006852;28;20352;-90
2023/09/09 07:28:25;;;;;;;10.15;5.90;;;;;;;;;;5002338;28;20026;-87
2023/09/09 07:30:51;;;;;;;9.45;4.60;;;;;;;;;;5010150;28;20029;-87
2023/09/09 07:33:18;;;;;;;12.52;5.35;;;;;;;;;;5008817;28;20121;-88
2023/09/09 07:35:44;;;;;;;11.40;5.82;;;;;;;;;;4990687;28;20038;-87
2023/09/09 07:38:10;;;;;;;10.52;6.03;;;;;;;;;;5004390;28;20064;-86
2023/09/09 07:40:37;;;;;;;12.68;6.18;;;;;;;;;;5019251;28;20038;-86
2023/09/09 07:43:03;;;;;;;10.32;5.50;;;;;;;;;;5002801;28;20034;-89
2023/09/09 07:45:30;;;;;;;10.52;6.28;;;;;;;;;;4997717;28;20037;-89
2023/09/09 07:47:56;;;;;;;10.45;6.03;;;17.30;99.90;;;;;;5007397;28;20075;-89
2023/09/09 07:50:23;;;;;;;15.23;5.55;;;;;;;;;;5014234;28;20030;-87
2023/09/09 07:52:49;;;;;;;9.35;5.80;;;;;;;;;;5006810;28;20029;-88
2023/09/09 07:55:15;;;;;;;11.00;5.50;;;;;;;;;;5005324;28;20416;-86
2023/09/09 07:57:41;;;;;;;9.07;4.72;;;;;;;;;;5004620;28;20026;-88
2023/09/09 08:00:07;;;;;;;8.98;4.80;;;;;;;;;;5005708;28;20038;-86
2023/09/09 08:02:35;;;;;;;12.60;4.97;;;;;;;;;;5002206;28;20044;-88
2023/09/09 08:05:01;;;;;;;7.85;4.88;;;;;;;;;;5002804;28;20499;-86
2023/09/09 08:07:27;;;;;;;5.90;3.83;;;;;;;;;;5006301;28;20504;-86
2023/09/09 08:09:53;;;;;;;9.68;4.28;;;;;;;;;;5011594;28;20022;-86
2023/09/09 08:12:19;;;;;;;7.32;4.47;;;;;;;;;;5008778;28;20072;-87
2023/09/09 08:14:47;;;;;;;7.45;3.65;;;;;;;;;;5011689;28;20037;-88
2023/09/09 08:17:13;;;;;;;9.82;4.68;;;;;;;;;;5002680;28;20031;-85
2023/09/09 08:19:39;;;;;;;9.40;4.47;;;;;;;;;;5004641;28;20034;-89
2023/09/09 08:22:05;;;;;;;6.90;3.78;;;;;;;;;;5001439;28;20236;-90
2023/09/09 08:24:31;;;;;;;9.77;3.53;;;;;;;;;;5001377;28;20038;-89
2023/09/09 08:26:57;;;;;;;8.48;4.28;;;;;;;;;;5001560;28;20036;-89
2023/09/09 08:29:23;;;;;;;6.97;4.22;;;;;;;;;;5001797;28;20026;-88
2023/09/09 08:31:49;;;;;;;13.27;4.68;;;;;;;;;;5001099;28;20037;-89
2023/09/09 08:34:15;;;;;;;9.57;3.78;;;;;;;;;;5005554;28;20033;-89
2023/09/09 08:36:41;;;;;;;8.52;4.03;;;;;;;;;;5007975;28;20121;-89
2023/09/09 08:39:08;;;;;;;8.40;4.55;;;;;;;;;;5003029;28;20060;-89
2023/09/09 08:41:52;;;;;;;6.40;3.67;;;22.50;99.90;;;;;;4995294;28;20386;-88
2023/09/09 08:44:40;;;;;;;7.28;4.32;;;22.90;99.90;;;;;;5012147;28;20545;-87
2023/09/09 08:47:06;;;;;;;9.02;3.28;;;;;;;;;;5001847;28;20030;-88
2023/09/09 08:49:34;;;;;;;9.02;3.63;;;;;;;;;;5005568;28;20421;-88
2023/09/09 08:52:06;;;;;;;7.15;3.42;;;29.20;99.90;;;;;;5009678;28;20496;-89
2023/09/09 08:54:32;;;;;;;8.20;3.72;;;;;;;;;;5011196;28;20033;-88
2023/09/09 08:57:00;;;;;;;7.82;2.83;;;32.90;99.90;;;;;;5007726;28;20026;-89
2023/09/09 08:59:27;;;;;;;8.57;3.63;;;;;;;;;;5006897;28;20022;-89
2023/09/09 09:01:53;;;;;;;5.80;2.90;;;;;;;;;;5002354;28;20022;-83
2023/09/09 09:04:20;;;;;;;4.55;3.03;;;;;;;;;;5007325;28;20052;-88
2023/09/09 09:06:49;;;;;;;6.43;3.80;;;;;;;;;;5006215;28;20060;-90
2023/09/09 09:09:16;;;;;;;6.85;3.90;;;35.10;84.50;;;;;;5003027;28;20390;-89
2023/09/09 09:11:43;;;;;;;4.95;3.17;;;;;;;;;;5005603;28;20029;-83
2023/09/09 09:14:09;;;;;;;6.55;3.85;;;;;;;;;;4994134;28;20065;-89
2023/09/09 09:16:40;;;;;;;5.72;3.47;;;31.50;91.70;;;;;;5002316;28;20029;-90
2023/09/09 09:19:06;;;;;;;5.15;3.60;;;30.50;93.00;;;;;;5004978;28;20116;-91
2023/09/09 09:21:36;;;;;;;8.82;3.15;;;;;;;;;;5000350;28;20628;-87
2023/09/09 09:24:02;;;;;;;5.78;3.67;;;;;;;;;;5004165;28;20054;-86
2023/09/09 09:26:29;;;;;;;4.95;3.35;;;28.10;98.60;;;;;;4998455;28;20100;-88
2023/09/09 09:28:55;;;;;;;4.75;3.00;;;;;;;;;;4989085;28;20022;-86
2023/09/09 09:31:22;;;;;;;5.13;3.13;;;;;;;;;;5005798;28;20025;-88
2023/09/09 09:33:51;;;;;;;5.18;3.40;;;27.20;99.90;;;;;;4999841;28;20015;-87
2023/09/09 09:36:21;;;;;;;4.28;3.00;;;27.50;99.90;;;;;;4997104;28;20032;-90
2023/09/09 09:38:48;;;;;;;4.50;2.78;;;27.00;99.90;;;;;;4973965;28;20073;-88
2023/09/09 09:41:17;;;;;;;4.97;2.80;;;;;;;;;;4997528;28;20037;-88
2023/09/09 09:43:45;;;;;;;7.00;4.47;;;;;;;;;;5004900;28;20060;-88
2023/09/09 09:46:21;;;;;;;5.72;3.28;;;;;;;;;;5003494;28;20033;-86
2023/09/09 09:48:47;;;;;;;7.00;4.25;;;27.10;99.90;;;;;;5004902;28;20030;-85
2023/09/09 09:51:13;;;;;;;5.53;2.72;;;;;;;;;;4998414;28;20025;-87
2023/09/09 09:53:48;;;;;;;5.32;3.17;;;27.20;99.90;;;;;;4999520;28;20034;-89
2023/09/09 09:56:15;;;;;;;4.97;3.17;;;27.00;99.90;;;;;;4994101;28;20111;-85
2023/09/09 09:58:44;;;;;;;7.70;3.38;;;26.90;99.90;;;;;;4996721;28;20030;-87
2023/09/09 10:01:11;;;;;;;6.38;2.83;;;26.90;99.90;;;;;;5003472;28;20045;-86
2023/09/09 10:03:48;;;;;;;4.20;2.38;;;;;;;;;;5000778;28;20495;-87
2023/09/09 10:06:18;;;;;;;7.20;3.15;;;;;;;;;;5007768;28;20502;-85
2023/09/09 10:08:49;;;;;;;5.72;3.63;;;27.00;99.90;;;;;;5003588;28;20516;-88
2023/09/09 10:11:19;;;;;;;7.07;3.35;;;27.40;99.90;;;;;;5003003;28;20018;-87
2023/09/09 10:13:45;;;;;;;5.85;3.50;;;;;;;;;;4997175;28;20886;-90
2023/09/09 10:16:12;;;;;;;4.50;2.67;;;27.10;99.90;;;;;;5005452;28;20037;-86
2023/09/09 10:18:38;;;;;;;4.63;3.20;;;;;;;;;;5009351;28;20029;-85
2023/09/09 10:21:09;;;;;;;6.13;3.13;;;27.30;99.90;;;;;;5007169;28;20033;-86
2023/09/09 10:23:36;;;;;;;5.55;3.40;;;27.30;99.90;;;;;;5008531;28;20044;-89
2023/09/09 10:26:02;;;;;;;5.75;3.28;;;30.00;99.90;;;;;;5011339;28;20030;-89
2023/09/09 10:28:29;;;;;;;4.30;2.80;;;27.30;99.90;;;;;;5001009;28;20100;-88
2023/09/09 10:30:57;;;;;;;4.95;3.33;;;27.10;99.90;;;;;;5009498;28;20815;-90
2023/09/09 10:33:23;;;;;;;7.90;3.83;;;;;;;;;;5008661;28;20026;-87
2023/09/09 10:35:50;;;;;;;7.25;3.28;;;;;;;;;;5005632;28;20034;-90
2023/09/09 10:38:17;;;;;;;5.97;3.28;;;27.50;99.90;;;;;;5004483;28;20132;-90
2023/09/09 10:40:46;;;;;;;5.32;3.35;;;27.70;99.90;;;;;;5004778;28;20175;-88
2023/09/09 10:43:12;;;;;;;8.63;3.33;;;;;;;;;;5005949;28;20023;-88
2023/09/09 10:45:45;;;;;;;4.53;3.05;;;27.90;99.90;;;;;;5009233;28;20034;-88
2023/09/09 10:48:11;;;;;;;3.90;2.55;;;;;;;;;;5011222;28;20118;-88
2023/09/09 10:50:44;;;;;;;5.93;2.92;;;27.40;99.90;;;;;;5007798;28;20023;-88
2023/09/09 10:53:27;;;;;;;7.43;3.20;;;27.50;99.90;;;;;;5007309;28;20018;-90
2023/09/09 10:55:55;;;;;;;5.85;3.40;;;28.20;99.90;;;;;;5008037;28;20104;-90
2023/09/09 10:58:30;;;;;;;4.72;3.05;;;28.10;99.90;;;;;;5013818;28;20048;-89
2023/09/09 11:00:56;;;;;;;5.82;3.10;;;;;;;;;;5027726;28;20038;-89
2023/09/09 11:03:22;;;;;;;6.57;3.53;;;28.00;99.90;;;;;;5004739;28;20027;-86
2023/09/09 11:06:07;;;;;;;4.65;3.28;;;27.50;98.20;;;;;;5003311;28;20077;-86
2023/09/09 11:08:40;;;;;;;5.18;3.55;;;27.80;99.80;;;;;;5004829;28;20026;-86
2023/09/09 11:11:12;;;;;;;4.78;3.33;;;27.90;99.90;;;;;;5010826;28;20647;-89
2023/09/09 11:14:02;;;;;;;10.05;3.25;;;27.90;99.90;;;;;;4982784;28;20564;-90
2023/09/09 11:16:28;;;;;;;5.70;3.35;;;;;;;;;;5013726;28;20499;-86
2023/09/09 11:18:54;;;;;;;5.97;3.17;;;;;;;;;;5015418;28;20095;-84
2023/09/09 11:21:23;;;;;;;4.38;3.03;;;27.70;99.90;;;;;;5011016;28;20026;-84
2023/09/09 11:23:51;;;;;;;7.25;3.03;;;29.10;99.90;;;;;;5010959;28;20042;-86
2023/09/09 11:26:17;;;;;;;5.45;3.30;;;;;;;;;;5011820;28;20034;-85
2023/09/09 11:28:48;;;;;;;5.78;3.22;;;27.70;99.90;;;;;;5004110;28;20037;-87
2023/09/09 11:31:15;;;;;;;6.38;2.92;;;28.00;99.90;;;;;;5010525;28;20030;-87
2023/09/09 11:33:41;;;;;;;6.45;3.38;;;;;;;;;;5008009;28;20036;-86
2023/09/09 11:36:07;;;;;;;6.30;3.55;;;;;;;;;;5004735;28;20033;-86
2023/09/09 11:38:34;;;;;;;5.50;3.22;;;28.80;99.90;;;;;;5009648;28;20045;-85
2023/09/09 11:41:00;;;;;;;7.53;3.90;;;;;;;;;;5008599;28;20038;-87
2023/09/09 11:53:48;;;;;;;6.47;3.92;;;;;;;;;;5385889;22;20077;-87
2023/09/09 11:56:14;;;;;;;5.75;3.63;;;;;;;;;;5003640;28;20036;-85
2023/09/09 11:58:43;;;;;;;5.57;3.55;;;28.90;98.80;;;;;;5006341;28;20034;-86
2023/09/09 12:01:10;;;;;;;3.88;2.72;;;29.30;97.60;;;;;;5006505;28;20610;-85
2023/09/09 12:03:36;;;;;;;4.38;2.83;;;;;;;;;;5004508;28;20033;-87
2023/09/09 12:06:04;;;;;;;4.32;2.75;;;28.50;98.30;;;;;;4989607;28;20139;-84
2023/09/09 12:08:31;;;;;;;3.75;2.83;;;28.30;96.90;;;;;;5004049;28;20034;-84
2023/09/09 12:10:58;;;;;;;7.30;3.33;;;28.60;96.90;;;;;;4998873;28;20030;-84
2023/09/09 12:13:24;;;;;;;7.90;2.92;;;;;;;;;;5000250;28;20100;-84
2023/09/09 12:15:51;;;;;;;5.28;2.72;;;;;;;;;;5009636;28;20054;-85
2023/09/09 12:18:17;;;;;;;4.82;3.20;;;;;;;;;;5010552;28;20105;-86
2023/09/09 12:21:09;;;;;;;4.57;2.85;;;29.20;99.90;;;;;;5007207;28;20472;-84
2023/09/09 12:23:38;;;;;;;8.05;2.47;;;29.50;96.10;;;;;;5007797;28;20105;-87
2023/09/09 12:26:14;;;;;;;5.18;2.88;;;29.20;99.90;;;;;;5004551;28;20132;-82
2023/09/09 12:28:45;;;;;;;5.72;2.90;;;29.50;95.50;;;;;;5004515;28;20759;-88
2023/09/09 12:31:11;;;;;;;3.42;2.03;;;28.60;94.00;;;;;;5007080;28;20664;-87
2023/09/09 12:33:43;;;;;;;3.25;2.05;;;29.30;93.10;;;;;;5007202;28;20097;-86
2023/09/09 12:36:20;;;;;;;4.20;2.05;;;29.30;93.10;;;;;;5003461;28;20507;-88
2023/09/09 12:38:48;;;;;;;3.72;2.42;;;29.50;94.60;;;;;;4999593;28;20424;-83
2023/09/09 12:41:21;;;;;;;4.72;2.22;;;29.20;92.50;;;;;;5007540;28;20030;-88
2023/09/09 12:43:52;;;;;;;8.85;2.38;;;28.60;91.10;;;;;;5003575;28;20045;-88
2023/09/09 12:46:24;;;;;;;3.33;2.03;;;29.50;92.20;;;;;;5007264;28;20120;-85
2023/09/09 12:48:57;;;;;;;9.02;2.53;;;29.20;99.90;;;;;;4997002;28;20073;-82
2023/09/09 12:51:30;;;;;;;5.22;2.78;;;29.00;91.00;;;;;;5005017;28;20022;-85
2023/09/09 12:53:58;;;;;;;5.07;2.40;;;28.60;99.90;;;;;;5003054;28;20260;-84
2023/09/09 12:56:24;;;;;;;4.20;2.28;;;;;;;;;;5000982;28;20034;-88
2023/09/09 12:58:50;;;;;;;5.43;2.72;;;;;;;;;;5000236;28;20117;-85
2023/09/09 13:01:16;;;;;;;4.82;2.22;;;29.30;99.90;;;;;;4998091;28;20161;-84
2023/09/09 13:03:42;;;;;;;4.75;2.63;;;;;;;;;;4995996;28;20034;-84
2023/09/09 13:06:09;;;;;;;8.68;2.35;;;;;;;;;;4987211;28;20047;-86
2023/09/09 13:08:35;;;;;;;4.95;2.38;;;29.60;92.40;;;;;;5003944;28;20196;-84
2023/09/09 13:11:01;;;;;;;3.00;2.10;;;;;;;;;;5004570;28;20040;-83
2023/09/09 13:13:27;;;;;;;3.90;2.20;;;;;;;;;;5015246;28;20121;-85
2023/09/09 13:15:53;;;;;;;7.90;2.33;;;;;;;;;;5018644;28;21437;-82
2023/09/09 13:18:19;;;;;;;4.70;2.00;;;;;;;;;;5011487;28;20034;-84
2023/09/09 13:20:48;;;;;;;5.97;2.60;;;29.20;91.30;;;;;;5017430;28;20030;-82
2023/09/09 13:23:14;;;;;;;3.67;2.50;;;;;;;;;;5009165;28;20476;-83
2023/09/09 13:25:39;;;;;;;6.20;2.60;;;28.80;99.90;;;;;;5011737;28;20041;-84
2023/09/09 13:28:06;;;;;;;4.97;2.78;;;28.90;91.40;;;;;;5018785;28;20026;-83
2023/09/09 13:30:32;;;;;;;6.55;2.83;;;;;;;;;;5018479;28;20081;-83
2023/09/09 13:32:57;;;;;;;5.15;2.83;;;29.20;96.60;;;;;;5012025;28;20429;-84
2023/09/09 13:35:23;;;;;;;4.32;2.15;;;;;;;;;;5010504;28;20141;-84
2023/09/09 13:37:49;;;;;;;6.82;2.25;;;;;;;;;;5017889;28;20361;-82
2023/09/09 13:40:15;;;;;;;3.60;2.30;;;;;;;;;;5010261;28;20041;-81
2023/09/09 13:42:44;;;;;;;5.53;2.40;;;29.10;90.50;;;;;;5014760;28;20026;-82
2023/09/09 13:45:10;;;;;;;4.30;2.45;;;28.20;91.70;;;;;;5011516;28;20018;-84
2023/09/09 13:47:37;;;;;;;3.80;2.13;;;;;;;;;;5014363;28;20049;-80
2023/09/09 13:50:04;;;;;;;3.88;2.10;;;28.60;90.90;;;;;;5008634;28;20030;-82
2023/09/09 13:52:30;;;;;;;5.20;2.47;;;29.20;99.90;;;;;;5019622;28;20025;-83
2023/09/09 13:54:56;;;;;;;4.15;1.88;;;;;;;;;;5012025;28;20037;-82
2023/09/09 13:57:23;;;;;;;3.75;2.45;;;29.30;94.50;;;;;;5003460;28;20046;-83
2023/09/09 13:59:49;;;;;;;4.57;2.20;;;;;;;;;;5019146;28;20052;-82
2023/09/09 14:02:15;;;;;;;4.15;2.45;;;;;;;;;;5009646;28;20117;-83
2023/09/09 14:04:41;;;;;;;3.83;1.90;;;28.70;99.90;;;;;;5011235;28;20050;-82
2023/09/09 14:07:07;;;;;;;3.50;1.92;;;;;;;;;;5012812;28;20038;-83
2023/09/09 14:09:33;;;;;;;2.47;1.65;;;;;;;;;;5016203;28;20026;-82
2023/09/09 14:11:59;;;;;;;4.30;1.95;;;;;;;;;;5015809;28;20034;-81
2023/09/09 14:14:25;;;;;;;5.38;1.98;;;;;;;;;;5014455;28;20034;-83
2023/09/09 14:16:51;;;;;;;5.05;2.47;;;;;;;;;;5012713;28;20033;-82